Time;durP1;ratioP1;P1;durP2;ratioP2;P2;SDS_P1;SDS_P2;PMS_P1;PMS_P2;Temp;Humidity;BMP_temperature;BMP_pressure;BME280_temperature;BME280_humidity;BME280_pressure;Samples;Min_cycle;Max_cycle;Signal;HPM_P1;HPM_P2
2022/02/20 00:01:13;;;;;;;;;;;;;;;16.16;62.69;100994.88;4996957;28;19956;-79
2022/02/20 00:03:39;;;;;;;;;;;;;;;16.13;62.65;100990.53;4996783;28;20394;-79
2022/02/20 00:06:04;;;;;;;;;;;;;;;16.14;62.37;100996.63;4996830;28;19926;-80
2022/02/20 00:08:29;;;;;;;;;;;;;;;16.14;62.84;101018.25;5014564;28;19914;-81
2022/02/20 00:10:55;;;;;;;;;;;;;;;16.14;63.03;101018.25;4980629;28;20364;-80
2022/02/20 00:13:20;;;;;;;;;;;;;;;16.11;62.52;101015.63;5014294;28;19914;-81
2022/02/20 00:15:46;;;;;;;;;;;;;;;16.12;62.63;101035.56;5014420;28;19913;-80
2022/02/20 00:18:11;;;;;;;;;;;;;;;16.13;62.71;101039.00;4996885;28;19925;-81
2022/02/20 00:20:37;;;;;;;;;;;;;;;16.12;62.71;101032.97;4996765;28;19917;-80
2022/02/20 00:23:03;;;;;;;;;;;;;;;16.12;62.49;101047.69;5014295;28;19914;-81
2022/02/20 00:25:34;;;;;;;;;;;;;;;16.12;62.57;101048.53;4996571;28;19914;-80
2022/02/20 00:27:59;;;;;;;;;;;;;;;16.13;62.80;101052.00;4996556;28;19913;-81
2022/02/20 00:30:25;;;;;;;;;;;;;;;16.10;62.78;101055.47;4996651;28;19920;-81
2022/02/20 00:32:51;;;;;;;;;;;;;;;16.11;62.84;101062.38;4996665;28;19913;-80
2022/02/20 00:35:16;;;;;;;;;;;;;;;16.11;62.67;101070.16;4996575;28;20302;-82
2022/02/20 00:37:41;;;;;;;;;;;;;;;16.13;62.92;101076.22;4996648;28;19917;-82
2022/02/20 00:40:07;;;;;;;;;;;;;;;16.13;62.51;101070.16;4997016;28;20023;-83
2022/02/20 00:42:32;;;;;;;;;;;;;;;16.14;62.77;101075.38;4996605;28;20028;-81
2022/02/20 00:44:57;;;;;;;;;;;;;;;16.13;62.87;101080.56;4996697;28;19975;-81
2022/02/20 00:47:22;;;;;;;;;;;;;;;16.12;62.35;101084.03;4980380;28;19918;-80
2022/02/20 00:49:47;;;;;;;;;;;;;;;16.12;62.28;101081.44;4980343;28;19921;-81
2022/02/20 00:52:13;;;;;;;;;;;;;;;16.11;62.43;101080.53;5000187;28;19918;-83
2022/02/20 00:54:38;;;;;;;;;;;;;;;16.12;62.90;101082.28;4984764;28;20280;-81
2022/02/20 00:57:03;;;;;;;;;;;;;;;16.11;62.58;101083.13;5001561;28;20075;-81
2022/02/20 00:59:28;;;;;;;;;;;;;;;16.12;62.29;101086.63;5018031;28;19917;-83
2022/02/20 01:01:54;;;;;;;;;;;;;;;16.11;62.10;101090.94;5000127;28;19931;-82
2022/02/20 01:04:19;;;;;;;;;;;;;;;16.11;62.09;101096.13;4983736;28;19918;-80
2022/02/20 01:06:44;;;;;;;;;;;;;;;16.11;62.65;101098.72;5017825;28;19917;-79
2022/02/20 01:09:09;;;;;;;;;;;;;;;16.11;62.63;101096.13;4983991;28;20368;-80
2022/02/20 01:11:35;;;;;;;;;;;;;;;16.11;62.68;101098.72;5000038;28;19918;-79
2022/02/20 01:14:00;;;;;;;;;;;;;;;16.11;62.49;101092.66;5017599;28;19924;-79
2022/02/20 01:16:25;;;;;;;;;;;;;;;16.12;62.54;101097.00;4999744;28;19941;-79
2022/02/20 01:18:50;;;;;;;;;;;;;;;16.09;61.86;101095.28;4999783;28;20388;-78
2022/02/20 01:21:16;;;;;;;;;;;;;;;16.10;62.43;101091.81;4999862;28;20004;-80
2022/02/20 01:23:41;;;;;;;;;;;;;;;16.11;62.56;101103.91;4999803;28;19922;-82
2022/02/20 01:26:07;;;;;;;;;;;;;;;16.12;62.28;101103.06;4999639;28;19924;-79
2022/02/20 01:28:32;;;;;;;;;;;;;;;16.11;62.27;101103.03;4999773;28;19921;-79
2022/02/20 01:30:57;;;;;;;;;;;;;;;16.11;62.34;101103.03;5000026;28;19972;-80
2022/02/20 01:33:23;;;;;;;;;;;;;;;16.09;62.56;101105.66;5017156;28;20322;-81
2022/02/20 01:35:48;;;;;;;;;;;;;;;16.10;62.33;101115.16;5017006;28;19956;-80
2022/02/20 01:38:15;;;;;;;;;;;;;;;16.12;62.32;101107.41;4983197;28;19918;-80
2022/02/20 01:40:41;;;;;;;;;;;;;;;16.10;62.10;101106.53;4999551;28;20020;-78
2022/02/20 01:43:10;;;;;;;;;;;;;;;16.09;62.26;101118.66;5016990;28;19914;-80
2022/02/20 01:45:36;;;;;;;;;;;;;;;16.09;62.49;101112.56;5000071;28;20367;-82
2022/02/20 01:48:01;;;;;;;;;;;;;;;16.11;61.89;101122.09;5016885;28;19913;-81
2022/02/20 01:50:26;;;;;;;;;;;;;;;16.11;62.19;101118.63;4999436;28;19961;-81
2022/02/20 01:52:52;;;;;;;;;;;;;;;16.10;62.41;101107.38;4999254;28;19918;-83
2022/02/20 01:55:17;;;;;;;;;;;;;;;16.10;62.20;101109.13;5017292;28;19918;-83
2022/02/20 01:57:42;;;;;;;;;;;;;;;16.11;62.11;101111.69;4983611;28;19917;-81
2022/02/20 02:00:10;;;;;;;;;;;;;;;16.11;62.35;101111.69;4999355;28;20016;-79
2022/02/20 02:02:36;;;;;;;;;;;;;;;16.11;62.29;101114.28;5016326;28;19925;-79
2022/02/20 02:05:01;;;;;;;;;;;;;;;16.09;62.07;101099.59;4999186;28;19963;-78
2022/02/20 02:07:27;;;;;;;;;;;;;;;16.10;61.94;101104.78;5016695;28;19996;-79
2022/02/20 02:09:52;;;;;;;;;;;;;;;16.11;62.06;101090.06;4999002;28;19913;-79
2022/02/20 02:12:18;;;;;;;;;;;;;;;16.10;62.09;101089.22;4999143;28;19917;-79
2022/02/20 02:14:53;;;;;;;;;;;;;;;16.10;61.77;101088.34;4998761;28;19917;-80
2022/02/20 02:17:19;;;;;;;;;;;;;;;16.09;61.61;101079.72;5016643;28;19920;-81
2022/02/20 02:19:44;;;;;;;;;;;;;;;16.09;61.65;101079.72;4998973;28;19925;-80
2022/02/20 02:22:09;;;;;;;;;;;;;;;16.09;61.64;101076.22;4998970;28;19917;-80
2022/02/20 02:24:34;;;;;;;;;;;;;;;16.08;61.67;101075.34;4998699;28;19917;-80
2022/02/20 02:27:01;;;;;;;;;;;;;;;16.09;61.89;101073.63;5016100;28;19924;-81
2022/02/20 02:29:26;;;;;;;;;;;;;;;16.08;61.62;101064.97;4998635;28;19940;-79
2022/02/20 02:31:51;;;;;;;;;;;;;;;16.09;61.66;101063.25;4982285;28;20387;-78
2022/02/20 02:34:17;;;;;;;;;;;;;;;16.09;61.57;101060.63;4998438;28;19913;-80
2022/02/20 02:36:46;;;;;;;;;;;;;;;16.10;61.55;101057.19;4998656;28;19918;-79
2022/02/20 02:39:11;;;;;;;;;;;;;;;16.10;61.63;101063.25;4998243;28;19917;-79
2022/02/20 02:41:37;;;;;;;;;;;;;;;16.09;61.72;101065.84;5016023;28;20279;-79
2022/02/20 02:44:03;;;;;;;;;;;;;;;16.09;61.53;101056.34;5015973;28;19917;-79
2022/02/20 02:46:28;;;;;;;;;;;;;;;16.09;61.68;101056.34;5015822;28;20368;-81
2022/02/20 02:48:54;;;;;;;;;;;;;;;16.10;61.51;101050.25;4998148;28;19925;-79
2022/02/20 02:51:19;;;;;;;;;;;;;;;16.09;61.73;101045.97;4982036;28;20375;-83
2022/02/20 02:53:44;;;;;;;;;;;;;;;16.09;61.53;101045.97;5015569;28;20039;-81
2022/02/20 02:56:10;;;;;;;;;;;;;;;16.09;61.11;101040.75;4998472;28;19941;-82
2022/02/20 02:58:35;;;;;;;;;;;;;;;16.10;61.45;101026.03;5015645;28;19922;-79
2022/02/20 03:01:00;;;;;;;;;;;;;;;16.10;61.37;101019.13;4998111;28;19921;-80
2022/02/20 03:03:26;;;;;;;;;;;;;;;16.09;61.37;101008.72;4997790;28;19979;-79
2022/02/20 03:05:52;;;;;;;;;;;;;;;16.09;61.61;101003.53;4998036;28;19925;-80
2022/02/20 03:08:17;;;;;;;;;;;;;;;16.08;61.32;101004.41;4997856;28;19918;-80
2022/02/20 03:10:42;;;;;;;;;;;;;;;16.08;61.46;100997.47;4997901;28;19917;-79
2022/02/20 03:13:08;;;;;;;;;;;;;;;16.09;61.39;100996.63;4997427;28;19918;-78
2022/02/20 03:15:33;;;;;;;;;;;;;;;16.08;61.20;100994.88;4981468;28;19918;-79
2022/02/20 03:17:58;;;;;;;;;;;;;;;16.08;61.08;100997.47;4998064;28;19991;-81
2022/02/20 03:20:23;;;;;;;;;;;;;;;16.09;61.34;101006.13;4997759;28;19925;-81
2022/02/20 03:22:49;;;;;;;;;;;;;;;16.10;61.39;101007.88;4981424;28;19917;-75
2022/02/20 03:25:14;;;;;;;;;;;;;;;16.09;61.22;101006.13;4981669;28;19917;-75
2022/02/20 03:27:39;;;;;;;;;;;;;;;16.08;61.29;101005.25;4997572;28;19917;-74
2022/02/20 03:30:05;;;;;;;;;;;;;;;16.09;61.13;101007.00;4997691;28;20298;-76
2022/02/20 03:32:30;;;;;;;;;;;;;;;16.08;61.16;100994.88;5014947;28;19997;-75
2022/02/20 03:34:55;;;;;;;;;;;;;;;16.08;61.29;100997.47;4997434;28;20393;-75
2022/02/20 03:37:21;;;;;;;;;;;;;;;16.08;60.85;100981.91;4997329;28;20397;-75
2022/02/20 03:39:46;;;;;;;;;;;;;;;16.08;60.99;100983.63;4997693;28;20357;-75
2022/02/20 03:42:11;;;;;;;;;;;;;;;16.07;60.88;100972.41;5015051;28;19960;-74
2022/02/20 03:44:36;;;;;;;;;;;;;;;16.09;61.20;100987.94;4981606;28;19973;-74
2022/02/20 03:47:02;;;;;;;;;;;;;;;16.08;60.85;100996.63;4997296;28;19918;-74
2022/02/20 03:49:27;;;;;;;;;;;;;;;16.09;60.76;100982.75;4983912;28;20016;-75
2022/02/20 03:51:52;;;;;;;;;;;;;;;16.09;61.09;100977.56;5015778;28;19918;-74
2022/02/20 03:54:18;;;;;;;;;;;;;;;16.08;60.85;100981.91;5014804;28;20390;-75
2022/02/20 03:56:43;;;;;;;;;;;;;;;16.09;61.07;100972.38;4997054;28;20005;-76
2022/02/20 03:59:08;;;;;;;;;;;;;;;16.08;61.08;100958.53;4980856;28;20421;-74
2022/02/20 04:01:34;;;;;;;;;;;;;;;16.08;61.04;100948.16;4996872;28;20036;-74
2022/02/20 04:03:59;;;;;;;;;;;;;;;16.08;60.98;100937.78;5014241;28;19921;-74
2022/02/20 04:06:24;;;;;;;;;;;;;;;16.07;60.50;100937.75;5014586;28;19929;-75
2022/02/20 04:08:49;;;;;;;;;;;;;;;16.07;60.76;100924.78;4996762;28;20283;-75
2022/02/20 04:11:15;;;;;;;;;;;;;;;16.07;60.85;100936.06;5014418;28;19917;-76
2022/02/20 04:13:40;;;;;;;;;;;;;;;16.07;60.82;100945.56;4996739;28;20016;-74
2022/02/20 04:16:05;;;;;;;;;;;;;;;16.08;60.72;100935.19;4996671;28;19913;-75
2022/02/20 04:18:30;;;;;;;;;;;;;;;16.07;61.01;100923.06;4980431;28;19926;-76
2022/02/20 04:20:56;;;;;;;;;;;;;;;16.07;60.76;100928.28;4996862;28;20362;-74
2022/02/20 04:23:22;;;;;;;;;;;;;;;16.07;61.00;100924.78;4996674;28;19918;-74
2022/02/20 04:25:47;;;;;;;;;;;;;;;16.07;60.91;100914.41;4996693;28;20002;-75
2022/02/20 04:28:12;;;;;;;;;;;;;;;16.07;60.60;100909.22;4996762;28;20016;-75
2022/02/20 04:30:38;;;;;;;;;;;;;;;16.07;61.22;100906.63;4996718;28;19917;-75
2022/02/20 04:33:03;;;;;;;;;;;;;;;16.06;60.77;100894.50;4980494;28;19925;-76
2022/02/20 04:35:31;;;;;;;;;;;;;;;16.06;60.69;100891.91;4996609;28;19918;-75
2022/02/20 04:37:56;;;;;;;;;;;;;;;16.05;60.45;100878.09;5014324;28;19920;-75
2022/02/20 04:40:21;;;;;;;;;;;;;;;16.04;60.30;100871.16;4996303;28;19918;-74
2022/02/20 04:42:51;;;;;;;;;;;;;;;16.06;60.53;100871.16;5013958;28;19989;-74
2022/02/20 04:45:16;;;;;;;;;;;;;;;16.06;60.34;100852.97;5014078;28;20008;-75
2022/02/20 04:47:41;;;;;;;;;;;;;;;16.05;60.66;100846.94;4996501;28;20367;-75
2022/02/20 04:50:07;;;;;;;;;;;;;;;16.04;60.62;100832.22;4996317;28;19917;-77
2022/02/20 04:52:32;;;;;;;;;;;;;;;16.03;60.75;100815.78;4980182;28;19929;-75
2022/02/20 04:54:57;;;;;;;;;;;;;;;16.04;60.32;100821.81;5014041;28;19917;-75
2022/02/20 04:57:22;;;;;;;;;;;;;;;16.04;60.43;100806.25;4996568;28;19960;-76
2022/02/20 04:59:47;;;;;;;;;;;;;;;16.04;60.45;100796.72;4979985;28;19921;-75
2022/02/20 05:02:13;;;;;;;;;;;;;;;16.05;60.64;100792.44;5013875;28;19922;-74
2022/02/20 05:04:38;;;;;;;;;;;;;;;16.03;60.12;100787.22;4996176;28;19921;-75
2022/02/20 05:07:06;;;;;;;;;;;;;;;16.02;60.56;100754.34;5013950;28;19959;-75
2022/02/20 05:09:32;;;;;;;;;;;;;;;16.04;61.16;100756.94;4980562;28;20008;-75
2022/02/20 05:11:57;;;;;;;;;;;;;;;16.03;60.50;100737.91;4996302;28;19960;-74
2022/02/20 05:14:22;;;;;;;;;;;;;;;16.02;60.56;100736.16;4996106;28;19918;-76
2022/02/20 05:16:47;;;;;;;;;;;;;;;16.02;60.23;100732.72;4996177;28;19917;-75
2022/02/20 05:19:13;;;;;;;;;;;;;;;16.03;60.52;100724.09;4979909;28;19929;-75
2022/02/20 05:21:38;;;;;;;;;;;;;;;16.01;60.46;100711.09;4979827;28;20379;-76
2022/02/20 05:24:03;;;;;;;;;;;;;;;16.03;60.75;100700.72;4979917;28;20012;-76
2022/02/20 05:26:28;;;;;;;;;;;;;;;16.02;60.37;100697.22;4980045;28;19964;-76
2022/02/20 05:28:54;;;;;;;;;;;;;;;16.02;60.38;100686.84;5013830;28;19922;-76
2022/02/20 05:31:19;;;;;;;;;;;;;;;16.02;60.03;100681.66;4996209;28;19918;-75
2022/02/20 05:33:44;;;;;;;;;;;;;;;16.02;60.46;100686.00;5013623;28;19917;-76
2022/02/20 05:36:09;;;;;;;;;;;;;;;16.02;60.97;100679.06;4995908;28;19924;-76
2022/02/20 05:38:35;;;;;;;;;;;;;;;16.01;59.93;100663.53;4999232;28;19971;-76
2022/02/20 05:41:00;;;;;;;;;;;;;;;16.02;59.81;100660.03;4999495;28;19917;-75
2022/02/20 05:43:25;;;;;;;;;;;;;;;16.02;60.61;100662.63;4999521;28;19917;-74
2022/02/20 05:45:50;;;;;;;;;;;;;;;16.03;59.88;100656.59;5017001;28;19918;-75
2022/02/20 05:48:17;;;;;;;;;;;;;;;16.02;60.12;100653.09;5016931;28;19917;-76
2022/02/20 05:50:42;;;;;;;;;;;;;;;16.01;60.30;100648.81;4999062;28;20015;-75
2022/02/20 05:53:07;;;;;;;;;;;;;;;16.02;60.34;100636.69;5016886;28;20004;-74
2022/02/20 05:55:33;;;;;;;;;;;;;;;16.00;59.93;100635.84;4983019;28;19968;-75
2022/02/20 05:57:58;;;;;;;;;;;;;;;16.00;60.31;100621.16;4982919;28;19964;-75
2022/02/20 06:00:24;;;;;;;;;;;;;;;16.01;60.08;100606.44;5016663;28;19971;-76
2022/02/20 06:02:50;;;;;;;;;;;;;;;16.00;60.09;100618.53;5016533;28;19921;-75
2022/02/20 06:05:15;;;;;;;;;;;;;;;16.01;60.32;100620.25;5016615;28;19914;-74
2022/02/20 06:07:41;;;;;;;;;;;;;;;16.01;59.79;100611.63;5016603;28;19918;-75
2022/02/20 06:10:07;;;;;;;;;;;;;;;16.01;59.85;100612.47;4999104;28;19945;-75
2022/02/20 06:12:32;;;;;;;;;;;;;;;16.00;59.83;100608.16;4998903;28;19983;-75
2022/02/20 06:14:58;;;;;;;;;;;;;;;16.00;60.15;100592.59;4982595;28;19921;-75
2022/02/20 06:17:23;;;;;;;;;;;;;;;16.00;60.13;100583.91;4982645;28;20260;-75
2022/02/20 06:19:49;;;;;;;;;;;;;;;16.01;59.58;100580.47;4998692;28;19918;-76
2022/02/20 06:22:14;;;;;;;;;;;;;;;16.00;59.83;100577.03;4998754;28;19913;-76
2022/02/20 06:24:39;;;;;;;;;;;;;;;16.00;60.17;100576.13;5016415;28;19918;-75
2022/02/20 06:27:05;;;;;;;;;;;;;;;16.00;59.96;100568.34;5016426;28;19927;-75
2022/02/20 06:29:30;;;;;;;;;;;;;;;16.01;59.98;100570.09;5016222;28;19914;-75
2022/02/20 06:31:55;;;;;;;;;;;;;;;16.01;60.25;100570.09;4998351;28;20016;-75
2022/02/20 06:34:20;;;;;;;;;;;;;;;16.01;60.17;100565.75;4998718;28;19917;-75
2022/02/20 06:36:46;;;;;;;;;;;;;;;16.01;59.78;100547.59;4998470;28;19996;-76
2022/02/20 06:39:11;;;;;;;;;;;;;;;16.01;60.31;100560.56;4998542;28;20017;-75
2022/02/20 06:41:37;;;;;;;;;;;;;;;16.02;59.93;100566.59;4998413;28;20004;-75
2022/02/20 06:44:03;;;;;;;;;;;;;;;16.02;59.81;100548.44;4998921;28;19922;-75
2022/02/20 06:46:28;;;;;;;;;;;;;;;16.02;60.07;100561.41;4998101;28;19975;-75
2022/02/20 06:48:53;;;;;;;;;;;;;;;16.02;59.65;100562.25;4997008;28;19914;-74
2022/02/20 06:51:19;;;;;;;;;;;;;;;16.02;59.81;100548.44;4998086;28;19917;-75
2022/02/20 06:53:44;;;;;;;;;;;;;;;16.02;59.76;100541.50;4998053;28;19932;-75
2022/02/20 06:56:09;;;;;;;;;;;;;;;16.02;60.04;100538.06;5015734;28;19967;-76
2022/02/20 06:58:34;;;;;;;;;;;;;;;16.03;60.04;100532.00;4998040;28;20390;-76
2022/02/20 07:01:00;;;;;;;;;;;;;;;16.02;59.76;100525.06;5015567;28;19964;-75
2022/02/20 07:03:25;;;;;;;;;;;;;;;16.02;59.65;100510.34;4981379;28;19925;-79
2022/02/20 07:05:50;;;;;;;;;;;;;;;16.03;60.02;100513.84;4997865;28;20354;-75
2022/02/20 07:08:15;;;;;;;;;;;;;;;16.04;59.45;100523.34;4981659;28;19917;-76
2022/02/20 07:10:41;;;;;;;;;;;;;;;16.06;59.58;100498.22;5015477;28;20402;-75
2022/02/20 07:13:06;;;;;;;;;;;;;;;16.06;59.41;100490.44;5015635;28;19914;-75
2022/02/20 07:15:31;;;;;;;;;;;;;;;16.06;59.39;100477.47;5015327;28;20363;-74
2022/02/20 07:17:57;;;;;;;;;;;;;;;16.09;59.59;100490.44;4997726;28;20283;-76
2022/02/20 07:20:22;;;;;;;;;;;;;;;16.10;59.30;100492.13;4997901;28;20299;-75
2022/02/20 07:22:48;;;;;;;;;;;;;;;16.10;59.39;100484.34;5015261;28;19921;-74
2022/02/20 07:25:13;;;;;;;;;;;;;;;16.11;59.08;100490.41;5015297;28;19913;-74
2022/02/20 07:27:45;;;;;;;;;;;;;;;16.11;58.96;100491.25;5015218;28;19918;-77
2022/02/20 07:30:12;;;;;;;;;;;;;;;16.13;59.15;100486.91;4997651;28;19956;-76
2022/02/20 07:32:37;;;;;;;;;;;;;;;16.13;59.33;100473.94;5015002;28;19913;-77
2022/02/20 07:35:03;;;;;;;;;;;;;;;16.14;59.18;100470.47;4997633;28;20015;-76
2022/02/20 07:37:29;;;;;;;;;;;;;;;16.14;58.71;100486.06;5015072;28;19913;-76
2022/02/20 07:39:55;;;;;;;;;;;;;;;16.14;59.13;100473.06;5014927;28;20462;-75
2022/02/20 07:42:20;;;;;;;;;;;;;;;16.16;59.28;100486.03;4997481;28;19920;-76
2022/02/20 07:44:45;;;;;;;;;;;;;;;16.16;59.17;100476.50;4997275;28;19917;-76
2022/02/20 07:47:11;;;;;;;;;;;;;;;16.17;59.04;100480.81;5014923;28;19983;-76
2022/02/20 07:49:36;;;;;;;;;;;;;;;16.17;58.96;100483.41;5014917;28;19918;-76
2022/02/20 07:52:01;;;;;;;;;;;;;;;16.19;59.10;100473.88;4997189;28;19924;-75
2022/02/20 07:54:26;;;;;;;;;;;;;;;16.20;59.30;100483.41;5014934;28;19913;-76
2022/02/20 07:56:53;;;;;;;;;;;;;;;16.21;59.62;100453.94;4997410;28;19925;-76
2022/02/20 07:59:18;;;;;;;;;;;;;;;16.22;59.43;100457.41;4996958;28;19921;-75
2022/02/20 08:01:43;;;;;;;;;;;;;;;16.23;60.29;100466.94;5014517;28;20048;-74
2022/02/20 08:04:08;;;;;;;;;;;;;;;16.25;60.13;100460.00;4980385;28;19925;-75
2022/02/20 08:06:34;;;;;;;;;;;;;;;16.27;60.55;100459.97;4997043;28;19969;-80
2022/02/20 08:09:03;;;;;;;;;;;;;;;16.27;60.71;100462.56;4981577;28;19917;-81
2022/02/20 08:11:29;;;;;;;;;;;;;;;16.30;61.66;100459.94;5014886;28;19917;-79
2022/02/20 08:13:54;;;;;;;;;;;;;;;16.32;61.49;100463.38;4996904;28;19922;-80
2022/02/20 08:16:19;;;;;;;;;;;;;;;16.32;61.85;100461.63;5014790;28;19972;-84
2022/02/20 08:18:45;;;;;;;;;;;;;;;16.34;62.01;100464.22;4980734;28;20008;-81
2022/02/20 08:21:10;;;;;;;;;;;;;;;16.34;61.96;100462.47;5014656;28;19956;-81
2022/02/20 08:23:35;;;;;;;;;;;;;;;16.36;62.17;100457.28;5014600;28;19960;-81
2022/02/20 08:26:01;;;;;;;;;;;;;;;16.35;62.35;100447.75;5014390;28;19924;-80
2022/02/20 08:28:26;;;;;;;;;;;;;;;16.35;62.46;100447.75;4980571;28;19917;-80
2022/02/20 08:30:51;;;;;;;;;;;;;;;16.35;62.46;100426.97;5014429;28;19917;-80
2022/02/20 08:33:16;;;;;;;;;;;;;;;16.36;62.50;100449.50;4980644;28;19952;-82
2022/02/20 08:35:42;;;;;;;;;;;;;;;16.37;62.33;100444.25;5014377;28;19963;-80
2022/02/20 08:38:08;;;;;;;;;;;;;;;16.38;62.44;100460.72;4996743;28;19924;-80
2022/02/20 08:40:34;;;;;;;;;;;;;;;16.38;62.55;100456.38;4980774;28;20020;-79
2022/02/20 08:43:00;;;;;;;;;;;;;;;16.39;62.34;100452.91;5014560;28;20010;-80
2022/02/20 08:45:25;;;;;;;;;;;;;;;16.39;62.47;100452.91;5014210;28;19918;-79
2022/02/20 08:47:50;;;;;;;;;;;;;;;16.56;59.30;100463.09;4996946;28;19924;-82
2022/02/20 08:50:16;;;;;;;;;;;;;;;16.79;58.00;100462.00;4996860;28;19917;-85
2022/02/20 08:52:41;;;;;;;;;;;;;;;16.86;58.47;100441.13;4996882;28;19936;-79
2022/02/20 08:55:07;;;;;;;;;;;;;;;16.87;58.69;100470.56;4996679;28;19918;-80
2022/02/20 08:57:32;;;;;;;;;;;;;;;16.85;58.87;100482.72;5014168;28;19917;-80
2022/02/20 08:59:58;;;;;;;;;;;;;;;16.82;59.28;100444.66;4996281;28;19924;-80
2022/02/20 09:02:24;;;;;;;;;;;;;;;16.81;59.43;100457.66;4996363;28;19921;-80
2022/02/20 09:04:49;;;;;;;;;;;;;;;16.79;59.24;100442.06;5014240;28;19914;-84
2022/02/20 09:07:14;;;;;;;;;;;;;;;16.75;59.55;100458.56;4980466;28;19921;-85
2022/02/20 09:09:40;;;;;;;;;;;;;;;16.79;59.31;100454.22;5014904;28;19917;-86
2022/02/20 09:12:06;;;;;;;;;;;;;;;16.81;58.18;100449.84;4998713;28;19917;-86
2022/02/20 09:14:31;;;;;;;;;;;;;;;16.84;57.48;100442.03;5000485;28;19913;-85
2022/02/20 09:16:56;;;;;;;;;;;;;;;16.88;57.88;100454.13;5018039;28;20359;-85
2022/02/20 09:19:22;;;;;;;;;;;;;;;16.91;57.54;100454.06;5000478;28;19922;-84
2022/02/20 09:21:47;;;;;;;;;;;;;;;16.92;56.65;100474.00;4984149;28;19918;-83
2022/02/20 09:24:13;;;;;;;;;;;;;;;16.95;56.87;100445.34;5017632;28;19914;-83
2022/02/20 09:26:38;;;;;;;;;;;;;;;16.96;57.15;100465.28;5000240;28;20375;-81
2022/02/20 09:29:03;;;;;;;;;;;;;;;17.00;57.20;100463.47;4984085;28;19925;-84
2022/02/20 09:31:29;;;;;;;;;;;;;;;16.98;56.91;100445.28;4983902;28;19924;-83
2022/02/20 09:33:54;;;;;;;;;;;;;;;17.00;57.08;100440.94;5000297;28;19913;-85
2022/02/20 09:36:19;;;;;;;;;;;;;;;17.02;56.91;100433.13;5000230;28;19971;-83
2022/02/20 09:38:45;;;;;;;;;;;;;;;17.02;56.84;100436.56;4984407;28;19921;-83
2022/02/20 09:41:10;;;;;;;;;;;;;;;17.03;57.50;100443.53;4999977;28;19924;-84
2022/02/20 09:43:37;;;;;;;;;;;;;;;17.05;57.16;100438.31;4983711;28;19924;-83
2022/02/20 09:46:03;;;;;;;;;;;;;;;17.05;57.08;100444.34;4999631;28;19913;-84
2022/02/20 09:48:28;;;;;;;;;;;;;;;17.08;56.60;100442.59;5017233;28;19917;-82
2022/02/20 09:50:54;;;;;;;;;;;;;;;17.06;56.90;100433.06;4983357;28;19940;-82
2022/02/20 09:53:19;;;;;;;;;;;;;;;17.07;56.74;100436.50;4983272;28;19918;-82
2022/02/20 09:55:45;;;;;;;;;;;;;;;17.07;57.16;100459.91;4983570;28;19921;-82
2022/02/20 09:58:12;;;;;;;;;;;;;;;17.06;57.01;100445.22;4999808;28;19909;-83
2022/02/20 10:00:48;;;;;;;;;;;;;;;17.07;57.24;100449.50;4983427;28;20314;-81
2022/02/20 10:03:26;;;;;;;;;;;;;;;17.07;56.91;100465.09;4999062;28;20004;-81
2022/02/20 10:05:52;;;;;;;;;;;;;;;17.09;56.92;100460.75;4999021;28;19917;-82
2022/02/20 10:08:18;;;;;;;;;;;;;;;17.09;57.11;100455.56;4983024;28;19924;-84
2022/02/20 10:10:43;;;;;;;;;;;;;;;17.10;57.14;100466.84;4999335;28;20335;-84
2022/02/20 10:13:09;;;;;;;;;;;;;;;17.09;56.92;100471.16;4999165;28;19917;-83
2022/02/20 10:15:35;;;;;;;;;;;;;;;17.10;56.91;100485.88;4982884;28;19922;-84
2022/02/20 10:18:18;;;;;;;;;;;;;;;17.10;57.12;100462.50;4999073;28;19920;-83
2022/02/20 10:20:44;;;;;;;;;;;;;;;17.11;57.01;100479.78;5016609;28;19917;-83
2022/02/20 10:23:13;;;;;;;;;;;;;;;17.13;57.06;100461.59;5016197;28;19918;-82
2022/02/20 10:25:39;;;;;;;;;;;;;;;17.14;57.09;100461.56;4998849;28;19924;-82
2022/02/20 10:28:05;;;;;;;;;;;;;;;17.15;57.01;100452.03;4998964;28;20020;-81
2022/02/20 10:30:32;;;;;;;;;;;;;;;17.16;57.11;100439.00;4998818;28;19949;-81
2022/02/20 10:33:03;;;;;;;;;;;;;;;17.16;57.02;100441.59;4998851;28;19917;-81
2022/02/20 10:35:33;;;;;;;;;;;;;;;17.15;57.23;100426.88;4998622;28;19914;-84
2022/02/20 10:37:58;;;;;;;;;;;;;;;17.16;57.04;100446.81;4998557;28;20384;-83
2022/02/20 10:40:30;;;;;;;;;;;;;;;17.26;56.39;100447.53;4982256;28;19957;-82
2022/02/20 10:42:57;;;;;;;;;;;;;;;17.33;57.31;100427.50;5016023;28;20000;-79
2022/02/20 10:45:32;;;;;;;;;;;;;;;17.34;59.15;100414.47;4998371;28;19913;-78
2022/02/20 10:47:57;;;;;;;;;;;;;;;17.33;60.09;100409.28;4998338;28;19917;-83
2022/02/20 10:50:24;;;;;;;;;;;;;;;17.21;58.60;100408.59;4998229;28;20375;-84
2022/02/20 10:53:08;;;;;;;;;;;;;;;17.14;59.59;100406.13;4998561;28;20429;-87
2022/02/20 10:55:37;;;;;;;;;;;;;;;17.09;58.26;100406.16;5016479;28;19925;-88
2022/02/20 10:58:10;;;;;;;;;;;;;;;17.05;60.37;100388.91;5016215;28;19970;-86
2022/02/20 11:00:35;;;;;;;;;;;;;;;17.02;59.41;100396.72;4998722;28;19927;-86
2022/02/20 11:03:04;;;;;;;;;;;;;;;17.00;59.44;100394.16;4998316;28;19922;-86
2022/02/20 11:05:30;;;;;;;;;;;;;;;17.01;59.84;100374.25;4998353;28;19913;-86
2022/02/20 11:07:56;;;;;;;;;;;;;;;16.97;61.54;100395.94;4998210;28;19924;-84
2022/02/20 11:10:21;;;;;;;;;;;;;;;16.98;59.57;100385.50;4998292;28;20425;-83
2022/02/20 11:12:47;;;;;;;;;;;;;;;16.98;59.09;100392.47;4982039;28;19979;-87
2022/02/20 11:15:12;;;;;;;;;;;;;;;16.96;59.43;100382.09;4982293;28;19945;-86
2022/02/20 11:17:38;;;;;;;;;;;;;;;16.95;59.40;100400.31;4981971;28;20379;-87
2022/02/20 11:20:04;;;;;;;;;;;;;;;16.94;61.54;100399.47;4998380;28;19976;-86
2022/02/20 11:22:32;;;;;;;;;;;;;;;16.96;60.62;100387.31;4998133;28;19913;-86
2022/02/20 11:24:58;;;;;;;;;;;;;;;16.95;59.38;100395.97;4998061;28;19913;-84
2022/02/20 11:27:24;;;;;;;;;;;;;;;16.94;59.53;100393.38;4998064;28;19917;-86
2022/02/20 11:29:49;;;;;;;;;;;;;;;16.91;59.42;100389.09;4981567;28;20271;-87
2022/02/20 11:32:15;;;;;;;;;;;;;;;16.91;59.87;100404.69;4997986;28;19967;-87
2022/02/20 11:34:42;;;;;;;;;;;;;;;16.93;60.73;100366.53;4997598;28;19965;-85
2022/02/20 11:37:09;;;;;;;;;;;;;;;16.92;59.53;100370.03;4982343;28;20012;-90
2022/02/20 11:39:35;;;;;;;;;;;;;;;16.92;59.59;100361.34;5015732;28;20368;-84
2022/02/20 11:42:09;;;;;;;;;;;;;;;16.91;59.76;100375.25;4982147;28;19917;-90
2022/02/20 11:44:49;;;;;;;;;;;;;;;16.92;59.30;100359.63;4997840;28;19920;-84
2022/02/20 11:47:33;;;;;;;;;;;;;;;16.92;59.69;100362.22;4997186;28;19913;-85
2022/02/20 11:50:13;;;;;;;;;;;;;;;16.92;60.46;100357.03;4997897;28;20055;-83
2022/02/20 11:52:47;;;;;;;;;;;;;;;16.95;60.19;100350.94;4997662;28;19913;-84
2022/02/20 11:55:13;;;;;;;;;;;;;;;16.94;61.05;100352.69;4997567;28;19913;-84
2022/02/20 11:57:38;;;;;;;;;;;;;;;16.95;60.94;100350.94;4997519;28;20391;-86
2022/02/20 12:00:04;;;;;;;;;;;;;;;16.95;60.91;100343.97;5015195;28;19921;-86
2022/02/20 12:02:30;;;;;;;;;;;;;;;16.95;60.79;100333.59;4997979;28;19922;-88
2022/02/20 12:04:55;;;;;;;;;;;;;;;16.96;61.06;100332.72;4997715;28;19913;-87
2022/02/20 12:07:46;;;;;;;;;;;;;;;16.96;60.56;100329.25;4997705;28;19913;-86
2022/02/20 12:10:17;;;;;;;;;;;;;;;16.97;61.06;100313.63;4997765;28;19972;-85
2022/02/20 12:12:45;;;;;;;;;;;;;;;16.96;60.84;100306.72;4997537;28;19916;-86
2022/02/20 12:15:26;;;;;;;;;;;;;;;16.97;60.76;100305.84;4981283;28;19918;-87
2022/02/20 12:18:18;;;;;;;;;;;;;;;16.95;61.70;100307.59;4998138;28;19920;-86
2022/02/20 12:20:49;;;;;;;;;;;;;;;16.96;60.54;100291.13;4993592;28;19925;-85
2022/02/20 12:23:30;;;;;;;;;;;;;;;16.97;60.52;100297.19;4998245;28;19920;-85
2022/02/20 12:25:57;;;;;;;;;;;;;;;16.96;60.37;100288.53;4983390;28;19921;-86
2022/02/20 12:28:33;;;;;;;;;;;;;;;16.97;60.47;100264.25;4998105;28;19914;-85
2022/02/20 12:31:08;;;;;;;;;;;;;;;16.99;61.46;100270.28;5016343;28;19922;-85